Somers Point, New Jersey
Current Conditions -  °F | °C
As of 2:54 PM on Friday 19 Dec 2014 (Local Time) from KACY Reporting Station
Few Clouds Few Clouds  
Wind Chill: 33°   Ceiling: Unl
Heat Index: 41°   Visibility: 10mi
Dew Point: 25°   Wind: 14mph
Humidity: 53%   Direction: 310°NW
Pressure: 30.06"   Gusts: NA
Location:  39.31°N, 74.6°W
Report Text: KACY 191954Z 31012KT 10SM FEW037 05/M04 A3006 RMK AO2 SLP179 T00501039
Loading
Personal Weather Stations






























Interactive Weather Map New forecast layout! Learn more

10-Day Weather Forecast

Advertisements
Track Severe Weather on mobile